sensor_id;sensor_type;location;lat;lon;timestamp;pressure;altitude;pressure_sealevel;temperature;humidity
18784;BME280;9520;50.954;6.968;2023-03-01T00:00:21;102331.94;;;9.33;34.67
18784;BME280;9520;50.954;6.968;2023-03-01T00:00:44;102328.34;;;9.28;34.71
18784;BME280;9520;50.954;6.968;2023-03-01T00:01:10;102326.69;;;9.33;34.66
18784;BME280;9520;50.954;6.968;2023-03-01T00:01:32;102334.66;;;9.36;34.68
18784;BME280;9520;50.954;6.968;2023-03-01T00:01:54;102333.78;;;9.37;34.61
18784;BME280;9520;50.954;6.968;2023-03-01T00:02:19;102329.47;;;9.41;34.53
18784;BME280;9520;50.954;6.968;2023-03-01T00:02:41;102338.25;;;9.41;34.60
18784;BME280;9520;50.954;6.968;2023-03-01T00:03:03;102340.88;;;9.41;34.55
18784;BME280;9520;50.954;6.968;2023-03-01T00:03:25;102337.41;;;9.44;34.77
18784;BME280;9520;50.954;6.968;2023-03-01T00:03:47;102333.88;;;9.43;34.61
18784;BME280;9520;50.954;6.968;2023-03-01T00:04:09;102329.47;;;9.42;34.70
18784;BME280;9520;50.954;6.968;2023-03-01T00:04:32;102337.44;;;9.45;34.64
18784;BME280;9520;50.954;6.968;2023-03-01T00:04:55;102339.13;;;9.43;34.61
18784;BME280;9520;50.954;6.968;2023-03-01T00:05:16;102340.91;;;9.44;34.50
18784;BME280;9520;50.954;6.968;2023-03-01T00:05:43;102322.44;;;9.41;34.52
18784;BME280;9520;50.954;6.968;2023-03-01T00:06:06;102334.84;;;9.47;34.75
18784;BME280;9520;50.954;6.968;2023-03-01T00:06:28;102335.66;;;9.44;34.55
18784;BME280;9520;50.954;6.968;2023-03-01T00:06:52;102333.88;;;9.43;34.61
18784;BME280;9520;50.954;6.968;2023-03-01T00:07:14;102340.91;;;9.44;34.52
18784;BME280;9520;50.954;6.968;2023-03-01T00:07:36;102337.38;;;9.42;35.09
18784;BME280;9520;50.954;6.968;2023-03-01T00:07:59;102343.47;;;9.40;35.23
18784;BME280;9520;50.954;6.968;2023-03-01T00:08:20;102347.00;;;9.40;35.45
18784;BME280;9520;50.954;6.968;2023-03-01T00:08:42;102348.75;;;9.40;35.18
18784;BME280;9520;50.954;6.968;2023-03-01T00:09:04;102341.75;;;9.40;34.83
18784;BME280;9520;50.954;6.968;2023-03-01T00:09:26;102346.16;;;9.43;34.94
18784;BME280;9520;50.954;6.968;2023-03-01T00:09:48;102350.50;;;9.39;34.78
18784;BME280;9520;50.954;6.968;2023-03-01T00:10:11;102343.47;;;9.40;34.70
18784;BME280;9520;50.954;6.968;2023-03-01T00:10:33;102346.13;;;9.40;34.61
18784;BME280;9520;50.954;6.968;2023-03-01T00:11:03;102345.22;;;9.39;35.26
18784;BME280;9520;50.954;6.968;2023-03-01T00:11:27;102347.03;;;9.42;35.03
18784;BME280;9520;50.954;6.968;2023-03-01T00:11:48;102345.25;;;9.41;34.94
18784;BME280;9520;50.954;6.968;2023-03-01T00:12:10;102347.03;;;9.42;34.83
18784;BME280;9520;50.954;6.968;2023-03-01T00:12:33;102350.53;;;9.42;34.82
18784;BME280;9520;50.954;6.968;2023-03-01T00:12:54;102349.72;;;9.45;34.74
18784;BME280;9520;50.954;6.968;2023-03-01T00:13:17;102348.78;;;9.43;34.45
18784;BME280;9520;50.954;6.968;2023-03-01T00:13:40;102350.50;;;9.39;34.65
18784;BME280;9520;50.954;6.968;2023-03-01T00:14:03;102351.41;;;9.41;34.43
18784;BME280;9520;50.954;6.968;2023-03-01T00:14:26;102349.63;;;9.40;34.46
18784;BME280;9520;50.954;6.968;2023-03-01T00:14:48;102336.44;;;9.39;34.62
18784;BME280;9520;50.954;6.968;2023-03-01T00:15:10;102332.84;;;9.32;34.72
18784;BME280;9520;50.954;6.968;2023-03-01T00:15:32;102340.75;;;9.34;34.77
18784;BME280;9520;50.954;6.968;2023-03-01T00:15:56;102345.16;;;9.35;35.02
18784;BME280;9520;50.954;6.968;2023-03-01T00:16:20;102348.69;;;9.35;34.93
18784;BME280;9520;50.954;6.968;2023-03-01T00:16:44;102342.53;;;9.35;34.96
18784;BME280;9520;50.954;6.968;2023-03-01T00:17:05;102345.13;;;9.33;35.00
18784;BME280;9520;50.954;6.968;2023-03-01T00:17:28;102340.66;;;9.29;35.02
18784;BME280;9520;50.954;6.968;2023-03-01T00:17:50;102348.63;;;9.32;35.16
18784;BME280;9520;50.954;6.968;2023-03-01T00:18:11;102353.00;;;9.33;35.07
18784;BME280;9520;50.954;6.968;2023-03-01T00:18:34;102344.19;;;9.30;34.74
18784;BME280;9520;50.954;6.968;2023-03-01T00:18:57;102349.50;;;9.33;34.83
18784;BME280;9520;50.954;6.968;2023-03-01T00:19:19;102349.50;;;9.31;34.76
18784;BME280;9520;50.954;6.968;2023-03-01T00:19:41;102349.50;;;9.33;34.97
18784;BME280;9520;50.954;6.968;2023-03-01T00:20:04;102346.81;;;9.30;34.98
18784;BME280;9520;50.954;6.968;2023-03-01T00:20:29;102346.84;;;9.31;34.93
18784;BME280;9520;50.954;6.968;2023-03-01T00:20:51;102349.53;;;9.34;34.63
18784;BME280;9520;50.954;6.968;2023-03-01T00:21:13;102352.19;;;9.36;34.75
18784;BME280;9520;50.954;6.968;2023-03-01T00:21:35;102347.72;;;9.30;34.56
18784;BME280;9520;50.954;6.968;2023-03-01T00:21:58;102349.53;;;9.34;34.70
18784;BME280;9520;50.954;6.968;2023-03-01T00:22:21;102346.84;;;9.31;34.70
18784;BME280;9520;50.954;6.968;2023-03-01T00:22:42;102347.72;;;9.30;35.03
18784;BME280;9520;50.954;6.968;2023-03-01T00:23:04;102349.41;;;9.28;35.18
18784;BME280;9520;50.954;6.968;2023-03-01T00:23:26;102345.91;;;9.26;35.06
18784;BME280;9520;50.954;6.968;2023-03-01T00:23:48;102352.09;;;9.30;35.28
18784;BME280;9520;50.954;6.968;2023-03-01T00:24:13;102346.00;;;9.32;35.12
18784;BME280;9520;50.954;6.968;2023-03-01T00:24:35;102353.00;;;9.33;34.66
18784;BME280;9520;50.954;6.968;2023-03-01T00:24:57;102343.38;;;9.34;34.88
18784;BME280;9520;50.954;6.968;2023-03-01T00:25:18;102341.59;;;9.31;35.04
18784;BME280;9520;50.954;6.968;2023-03-01T00:25:41;102334.53;;;9.30;34.95
18784;BME280;9520;50.954;6.968;2023-03-01T00:26:06;102337.13;;;9.27;35.17
18784;BME280;9520;50.954;6.968;2023-03-01T00:26:29;102341.44;;;9.24;35.02
18784;BME280;9520;50.954;6.968;2023-03-01T00:26:53;102344.03;;;9.21;35.09
18784;BME280;9520;50.954;6.968;2023-03-01T00:27:16;102337.03;;;9.21;35.28
18784;BME280;9520;50.954;6.968;2023-03-01T00:27:40;102344.06;;;9.22;35.27
18784;BME280;9520;50.954;6.968;2023-03-01T00:28:02;102340.50;;;9.20;35.26
18784;BME280;9520;50.954;6.968;2023-03-01T00:28:24;102335.28;;;9.22;35.13
18784;BME280;9520;50.954;6.968;2023-03-01T00:28:46;102338.81;;;9.24;35.33
18784;BME280;9520;50.954;6.968;2023-03-01T00:29:09;102343.22;;;9.25;35.18
18784;BME280;9520;50.954;6.968;2023-03-01T00:29:31;102340.56;;;9.23;35.22
18784;BME280;9520;50.954;6.968;2023-03-01T00:29:53;102340.47;;;9.19;35.17
18784;BME280;9520;50.954;6.968;2023-03-01T00:30:15;102337.88;;;9.20;35.25
18784;BME280;9520;50.954;6.968;2023-03-01T00:30:37;102331.72;;;9.20;35.03
18784;BME280;9520;50.954;6.968;2023-03-01T00:31:03;102334.34;;;9.20;35.14
18784;BME280;9520;50.954;6.968;2023-03-01T00:31:27;102330.72;;;9.12;34.99
18784;BME280;9520;50.954;6.968;2023-03-01T00:31:51;102338.69;;;9.16;35.18
18784;BME280;9520;50.954;6.968;2023-03-01T00:32:13;102330.75;;;9.15;34.98
18784;BME280;9520;50.954;6.968;2023-03-01T00:32:36;102343.97;;;9.18;35.09
18784;BME280;9520;50.954;6.968;2023-03-01T00:32:57;102335.13;;;9.13;35.13
18784;BME280;9520;50.954;6.968;2023-03-01T00:33:19;102336.88;;;9.12;35.23
18784;BME280;9520;50.954;6.968;2023-03-01T00:33:42;102328.00;;;9.07;35.23
18784;BME280;9520;50.954;6.968;2023-03-01T00:34:06;102330.78;;;9.16;35.34
18784;BME280;9520;50.954;6.968;2023-03-01T00:34:30;102332.56;;;9.17;35.51
18784;BME280;9520;50.954;6.968;2023-03-01T00:34:52;102333.44;;;9.16;35.33
18784;BME280;9520;50.954;6.968;2023-03-01T00:35:16;102336.06;;;9.16;35.28
18784;BME280;9520;50.954;6.968;2023-03-01T00:35:38;102330.75;;;9.15;35.14
18784;BME280;9520;50.954;6.968;2023-03-01T00:36:02;102335.13;;;9.13;35.00
18784;BME280;9520;50.954;6.968;2023-03-01T00:36:29;102329.84;;;9.11;35.24
18784;BME280;9520;50.954;6.968;2023-03-01T00:36:52;102342.09;;;9.10;35.29
18784;BME280;9520;50.954;6.968;2023-03-01T00:37:15;102332.50;;;9.13;34.99
18784;BME280;9520;50.954;6.968;2023-03-01T00:37:37;102330.72;;;9.12;34.94
18784;BME280;9520;50.954;6.968;2023-03-01T00:38:00;102338.53;;;9.07;35.22
18784;BME280;9520;50.954;6.968;2023-03-01T00:38:22;102336.75;;;9.06;35.12
18784;BME280;9520;50.954;6.968;2023-03-01T00:38:45;102329.69;;;9.02;35.13
18784;BME280;9520;50.954;6.968;2023-03-01T00:39:11;102332.31;;;9.03;35.23
18784;BME280;9520;50.954;6.968;2023-03-01T00:39:34;102334.94;;;9.02;35.19
18784;BME280;9520;50.954;6.968;2023-03-01T00:39:55;102334.00;;;9.00;35.35
18784;BME280;9520;50.954;6.968;2023-03-01T00:40:17;102340.16;;;9.00;35.47
18784;BME280;9520;50.954;6.968;2023-03-01T00:40:39;102326.97;;;8.99;35.21
18784;BME280;9520;50.954;6.968;2023-03-01T00:41:07;102337.56;;;9.02;35.41
18784;BME280;9520;50.954;6.968;2023-03-01T00:41:30;102333.16;;;9.01;35.52
18784;BME280;9520;50.954;6.968;2023-03-01T00:41:51;102336.66;;;9.00;35.46
18784;BME280;9520;50.954;6.968;2023-03-01T00:42:13;102338.34;;;8.98;35.34
18784;BME280;9520;50.954;6.968;2023-03-01T00:42:36;102328.66;;;8.95;35.31
18784;BME280;9520;50.954;6.968;2023-03-01T00:42:57;102333.09;;;8.98;35.60
18784;BME280;9520;50.954;6.968;2023-03-01T00:43:19;102326.94;;;8.96;35.28
18784;BME280;9520;50.954;6.968;2023-03-01T00:43:41;102313.53;;;8.84;35.46
18784;BME280;9520;50.954;6.968;2023-03-01T00:44:03;102333.06;;;8.96;35.50
18784;BME280;9520;50.954;6.968;2023-03-01T00:44:26;102340.19;;;9.02;35.35
18784;BME280;9520;50.954;6.968;2023-03-01T00:44:49;102323.44;;;8.98;35.57
18784;BME280;9520;50.954;6.968;2023-03-01T00:45:11;102326.06;;;8.97;35.44
18784;BME280;9520;50.954;6.968;2023-03-01T00:45:34;102338.34;;;8.98;35.33
18784;BME280;9520;50.954;6.968;2023-03-01T00:46:00;102333.19;;;9.02;35.53
18784;BME280;9520;50.954;6.968;2023-03-01T00:46:24;102329.59;;;8.99;35.36
18784;BME280;9520;50.954;6.968;2023-03-01T00:46:46;102326.16;;;9.03;35.40
18784;BME280;9520;50.954;6.968;2023-03-01T00:47:07;102334.97;;;9.05;35.41
18784;BME280;9520;50.954;6.968;2023-03-01T00:47:30;102335.03;;;9.06;35.08
18784;BME280;9520;50.954;6.968;2023-03-01T00:47:52;102333.19;;;9.04;35.28
18784;BME280;9520;50.954;6.968;2023-03-01T00:48:14;102334.91;;;9.00;35.48
18784;BME280;9520;50.954;6.968;2023-03-01T00:48:36;102334.91;;;9.00;35.37
18784;BME280;9520;50.954;6.968;2023-03-01T00:49:00;102330.56;;;9.04;35.42
18784;BME280;9520;50.954;6.968;2023-03-01T00:49:23;102334.13;;;9.06;35.46
18784;BME280;9520;50.954;6.968;2023-03-01T00:49:50;102338.53;;;9.07;35.47
18784;BME280;9520;50.954;6.968;2023-03-01T00:50:12;102335.91;;;9.07;35.43
18784;BME280;9520;50.954;6.968;2023-03-01T00:50:34;102334.94;;;9.03;35.21
18784;BME280;9520;50.954;6.968;2023-03-01T00:50:56;102334.00;;;9.00;35.38
18784;BME280;9520;50.954;6.968;2023-03-01T00:51:20;102337.56;;;9.03;35.47
18784;BME280;9520;50.954;6.968;2023-03-01T00:51:42;102325.19;;;8.98;35.50
18784;BME280;9520;50.954;6.968;2023-03-01T00:52:05;102334.94;;;9.02;35.34
18784;BME280;9520;50.954;6.968;2023-03-01T00:52:28;102334.94;;;9.03;35.16
18784;BME280;9520;50.954;6.968;2023-03-01T00:52:52;102332.31;;;9.02;35.22
18784;BME280;9520;50.954;6.968;2023-03-01T00:53:14;102330.50;;;8.99;35.34
18784;BME280;9520;50.954;6.968;2023-03-01T00:53:36;102329.59;;;8.97;35.68
18784;BME280;9520;50.954;6.968;2023-03-01T00:54:00;102335.78;;;9.01;35.69
18784;BME280;9520;50.954;6.968;2023-03-01T00:54:23;102329.59;;;8.99;35.94
18784;BME280;9520;50.954;6.968;2023-03-01T00:54:44;102301.22;;;8.81;35.67
18784;BME280;9520;50.954;6.968;2023-03-01T00:55:08;102336.59;;;8.97;35.54
18784;BME280;9520;50.954;6.968;2023-03-01T00:55:30;102332.22;;;8.99;35.63
18784;BME280;9520;50.954;6.968;2023-03-01T00:55:52;102320.88;;;9.03;35.39
18784;BME280;9520;50.954;6.968;2023-03-01T00:56:14;102325.34;;;9.05;35.21
18784;BME280;9520;50.954;6.968;2023-03-01T00:56:37;102330.59;;;9.05;35.06
18784;BME280;9520;50.954;6.968;2023-03-01T00:56:59;102328.81;;;9.04;35.52
18784;BME280;9520;50.954;6.968;2023-03-01T00:57:21;102327.84;;;8.99;35.51
18784;BME280;9520;50.954;6.968;2023-03-01T00:57:43;102329.69;;;9.02;35.60
18784;BME280;9520;50.954;6.968;2023-03-01T00:58:04;102327.84;;;8.99;35.36
18784;BME280;9520;50.954;6.968;2023-03-01T00:58:27;102332.22;;;8.99;35.40
18784;BME280;9520;50.954;6.968;2023-03-01T00:58:49;102326.13;;;9.00;35.48
18784;BME280;9520;50.954;6.968;2023-03-01T00:59:11;102329.63;;;9.00;35.39
18784;BME280;9520;50.954;6.968;2023-03-01T00:59:33;102327.81;;;8.98;34.72
18784;BME280;9520;50.954;6.968;2023-03-01T00:59:56;102324.44;;;9.05;35.17
18784;BME280;9520;50.954;6.968;2023-03-01T01:00:20;102326.97;;;8.99;35.03
18784;BME280;9520;50.954;6.968;2023-03-01T01:00:42;102331.41;;;9.01;34.95
18784;BME280;9520;50.954;6.968;2023-03-01T01:01:07;102319.09;;;9.00;35.25
18784;BME280;9520;50.954;6.968;2023-03-01T01:01:38;102323.44;;;8.98;35.30
18784;BME280;9520;50.954;6.968;2023-03-01T01:02:01;102322.66;;;9.02;34.99
18784;BME280;9520;50.954;6.968;2023-03-01T01:02:23;102329.63;;;9.00;34.91
18784;BME280;9520;50.954;6.968;2023-03-01T01:02:47;102322.63;;;9.01;34.61
18784;BME280;9520;50.954;6.968;2023-03-01T01:03:08;102316.44;;;8.99;34.70
18784;BME280;9520;50.954;6.968;2023-03-01T01:03:31;102325.25;;;9.01;35.08
18784;BME280;9520;50.954;6.968;2023-03-01T01:03:55;102314.63;;;8.95;35.24
18784;BME280;9520;50.954;6.968;2023-03-01T01:04:17;102333.25;;;9.05;35.21
18784;BME280;9520;50.954;6.968;2023-03-01T01:04:38;102334.09;;;9.04;34.94
18784;BME280;9520;50.954;6.968;2023-03-01T01:05:01;102329.72;;;9.05;34.98
18784;BME280;9520;50.954;6.968;2023-03-01T01:05:22;102324.44;;;9.05;34.95
18784;BME280;9520;50.954;6.968;2023-03-01T01:05:44;102329.69;;;9.03;34.81
18784;BME280;9520;50.954;6.968;2023-03-01T01:06:13;102326.16;;;9.01;34.89
18784;BME280;9520;50.954;6.968;2023-03-01T01:06:37;102328.78;;;9.01;35.18
18784;BME280;9520;50.954;6.968;2023-03-01T01:06:59;102322.69;;;9.04;35.03
18784;BME280;9520;50.954;6.968;2023-03-01T01:07:21;102328.75;;;9.00;35.44
18784;BME280;9520;50.954;6.968;2023-03-01T01:07:44;102324.41;;;9.02;35.30
18784;BME280;9520;50.954;6.968;2023-03-01T01:08:07;102325.25;;;9.01;35.30
18784;BME280;9520;50.954;6.968;2023-03-01T01:08:28;102332.31;;;9.03;35.20
18784;BME280;9520;50.954;6.968;2023-03-01T01:08:51;102320.88;;;9.01;35.17
18784;BME280;9520;50.954;6.968;2023-03-01T01:09:16;102325.31;;;9.04;35.08
18784;BME280;9520;50.954;6.968;2023-03-01T01:09:39;102330.56;;;9.02;35.18
18784;BME280;9520;50.954;6.968;2023-03-01T01:10:01;102327.03;;;9.03;35.26
18784;BME280;9520;50.954;6.968;2023-03-01T01:10:23;102315.59;;;9.00;35.23
18784;BME280;9520;50.954;6.968;2023-03-01T01:10:46;102319.91;;;8.96;35.20
18784;BME280;9520;50.954;6.968;2023-03-01T01:11:09;102320.84;;;9.00;35.08
18784;BME280;9520;50.954;6.968;2023-03-01T01:11:31;102326.09;;;8.98;35.07
18784;BME280;9520;50.954;6.968;2023-03-01T01:11:53;102326.09;;;8.98;34.99
18784;BME280;9520;50.954;6.968;2023-03-01T01:12:15;102322.56;;;8.98;35.06
18784;BME280;9520;50.954;6.968;2023-03-01T01:12:37;102318.19;;;8.98;34.85
18784;BME280;9520;50.954;6.968;2023-03-01T01:12:58;102318.19;;;8.97;35.02
18784;BME280;9520;50.954;6.968;2023-03-01T01:13:20;102311.22;;;9.00;34.78
18784;BME280;9520;50.954;6.968;2023-03-01T01:13:44;102314.78;;;9.04;35.07
18784;BME280;9520;50.954;6.968;2023-03-01T01:14:06;102319.19;;;9.05;34.93
18784;BME280;9520;50.954;6.968;2023-03-01T01:14:27;102311.25;;;9.03;34.70
18784;BME280;9520;50.954;6.968;2023-03-01T01:14:50;102313.06;;;9.06;34.87
18784;BME280;9520;50.954;6.968;2023-03-01T01:15:12;102310.44;;;9.06;34.90
18784;BME280;9520;50.954;6.968;2023-03-01T01:15:35;102306.91;;;9.05;34.80
18784;BME280;9520;50.954;6.968;2023-03-01T01:16:00;102310.44;;;9.06;34.72
18784;BME280;9520;50.954;6.968;2023-03-01T01:16:24;102311.28;;;9.05;34.74
18784;BME280;9520;50.954;6.968;2023-03-01T01:16:47;102302.47;;;9.01;35.14
18784;BME280;9520;50.954;6.968;2023-03-01T01:17:10;102304.22;;;9.01;35.26
18784;BME280;9520;50.954;6.968;2023-03-01T01:17:31;102306.84;;;9.01;35.26
18784;BME280;9520;50.954;6.968;2023-03-01T01:17:54;102304.25;;;9.02;35.18
18784;BME280;9520;50.954;6.968;2023-03-01T01:18:17;102301.56;;;9.01;35.01
18784;BME280;9520;50.954;6.968;2023-03-01T01:18:38;102305.03;;;8.98;35.19
18784;BME280;9520;50.954;6.968;2023-03-01T01:19:02;102303.25;;;8.96;35.03
18784;BME280;9520;50.954;6.968;2023-03-01T01:19:24;102296.16;;;8.92;35.04
18784;BME280;9520;50.954;6.968;2023-03-01T01:19:49;102295.31;;;8.94;34.86
18784;BME280;9520;50.954;6.968;2023-03-01T01:20:11;102303.22;;;8.94;34.67
18784;BME280;9520;50.954;6.968;2023-03-01T01:20:35;102301.47;;;8.95;34.97
18784;BME280;9520;50.954;6.968;2023-03-01T01:20:57;102291.78;;;8.92;35.08
18784;BME280;9520;50.954;6.968;2023-03-01T01:21:20;102297.06;;;8.94;35.11
18784;BME280;9520;50.954;6.968;2023-03-01T01:21:44;102304.06;;;8.93;34.77
18784;BME280;9520;50.954;6.968;2023-03-01T01:22:06;102298.84;;;8.95;34.90
18784;BME280;9520;50.954;6.968;2023-03-01T01:22:28;102295.31;;;8.93;35.11
18784;BME280;9520;50.954;6.968;2023-03-01T01:22:51;102297.94;;;8.93;35.11
18784;BME280;9520;50.954;6.968;2023-03-01T01:23:12;102293.53;;;8.92;34.82
18784;BME280;9520;50.954;6.968;2023-03-01T01:23:36;102292.72;;;8.96;34.88
18784;BME280;9520;50.954;6.968;2023-03-01T01:23:58;102304.13;;;8.98;35.15
18784;BME280;9520;50.954;6.968;2023-03-01T01:24:20;102293.56;;;8.95;35.14
18784;BME280;9520;50.954;6.968;2023-03-01T01:24:42;102299.75;;;8.97;34.99
18784;BME280;9520;50.954;6.968;2023-03-01T01:25:07;102298.03;;;8.97;35.17
18784;BME280;9520;50.954;6.968;2023-03-01T01:25:28;102297.13;;;8.97;35.23
18784;BME280;9520;50.954;6.968;2023-03-01T01:25:50;102292.75;;;8.99;35.21
18784;BME280;9520;50.954;6.968;2023-03-01T01:26:13;102296.31;;;9.01;35.07
18784;BME280;9520;50.954;6.968;2023-03-01T01:26:35;102290.19;;;9.02;35.22
18784;BME280;9520;50.954;6.968;2023-03-01T01:26:58;102293.72;;;9.02;34.94
18784;BME280;9520;50.954;6.968;2023-03-01T01:27:21;102274.22;;;8.91;35.14
18784;BME280;9520;50.954;6.968;2023-03-01T01:27:43;102291.06;;;9.01;35.04
18784;BME280;9520;50.954;6.968;2023-03-01T01:28:05;102302.47;;;9.03;35.13
18784;BME280;9520;50.954;6.968;2023-03-01T01:28:27;102289.31;;;9.01;35.18
18784;BME280;9520;50.954;6.968;2023-03-01T01:28:51;102293.72;;;9.04;34.94
18784;BME280;9520;50.954;6.968;2023-03-01T01:29:13;102295.47;;;9.03;34.84
18784;BME280;9520;50.954;6.968;2023-03-01T01:29:35;102294.66;;;9.06;34.82
18784;BME280;9520;50.954;6.968;2023-03-01T01:30:25;102285.88;;;9.05;34.93
18784;BME280;9520;50.954;6.968;2023-03-01T01:30:46;102275.16;;;8.95;34.89
18784;BME280;9520;50.954;6.968;2023-03-01T01:31:08;102294.69;;;9.07;35.01
18784;BME280;9520;50.954;6.968;2023-03-01T01:31:31;102294.69;;;9.07;34.70
18784;BME280;9520;50.954;6.968;2023-03-01T01:31:54;102294.69;;;9.07;35.08
18784;BME280;9520;50.954;6.968;2023-03-01T01:32:15;102289.38;;;9.06;34.85
18784;BME280;9520;50.954;6.968;2023-03-01T01:32:37;102292.88;;;9.05;34.84
18784;BME280;9520;50.954;6.968;2023-03-01T01:32:59;102291.09;;;9.04;34.67
18784;BME280;9520;50.954;6.968;2023-03-01T01:33:22;102298.13;;;9.05;34.57
18784;BME280;9520;50.954;6.968;2023-03-01T01:33:43;102290.16;;;9.00;34.81
18784;BME280;9520;50.954;6.968;2023-03-01T01:34:07;102285.81;;;9.04;34.63
18784;BME280;9520;50.954;6.968;2023-03-01T01:34:28;102292.91;;;9.08;34.47
18784;BME280;9520;50.954;6.968;2023-03-01T01:34:51;102293.84;;;9.10;34.53
18784;BME280;9520;50.954;6.968;2023-03-01T01:35:14;102291.16;;;9.07;34.44
18784;BME280;9520;50.954;6.968;2023-03-01T01:35:36;102287.66;;;9.08;34.69
18784;BME280;9520;50.954;6.968;2023-03-01T01:35:57;102293.78;;;9.07;34.88
18784;BME280;9520;50.954;6.968;2023-03-01T01:36:19;102290.28;;;9.08;34.74
18784;BME280;9520;50.954;6.968;2023-03-01T01:36:42;102295.53;;;9.08;34.61
18784;BME280;9520;50.954;6.968;2023-03-01T01:37:04;102288.53;;;9.08;34.33
18784;BME280;9520;50.954;6.968;2023-03-01T01:37:29;102288.53;;;9.08;34.33
18784;BME280;9520;50.954;6.968;2023-03-01T01:37:53;102285.00;;;9.06;34.37
18784;BME280;9520;50.954;6.968;2023-03-01T01:38:16;102286.78;;;9.09;34.64
18784;BME280;9520;50.954;6.968;2023-03-01T01:38:38;102287.66;;;9.08;34.48
18784;BME280;9520;50.954;6.968;2023-03-01T01:39:01;102283.28;;;9.08;34.27
18784;BME280;9520;50.954;6.968;2023-03-01T01:39:23;102269.91;;;8.98;34.51
18784;BME280;9520;50.954;6.968;2023-03-01T01:39:45;102280.63;;;9.07;34.47
18784;BME280;9520;50.954;6.968;2023-03-01T01:40:11;102276.06;;;8.98;34.49
18784;BME280;9520;50.954;6.968;2023-03-01T01:40:33;102284.00;;;9.00;34.55
18784;BME280;9520;50.954;6.968;2023-03-01T01:40:54;102275.25;;;9.01;34.29
18784;BME280;9520;50.954;6.968;2023-03-01T01:41:17;102278.78;;;9.03;34.36
18784;BME280;9520;50.954;6.968;2023-03-01T01:41:41;102284.97;;;9.05;34.42
18784;BME280;9520;50.954;6.968;2023-03-01T01:42:03;102280.56;;;9.04;34.42
18784;BME280;9520;50.954;6.968;2023-03-01T01:42:26;102276.06;;;8.97;34.37
18784;BME280;9520;50.954;6.968;2023-03-01T01:42:50;102277.81;;;8.98;34.29
18784;BME280;9520;50.954;6.968;2023-03-01T01:43:18;102279.59;;;8.99;34.39
18784;BME280;9520;50.954;6.968;2023-03-01T01:43:43;102275.19;;;8.96;34.50
18784;BME280;9520;50.954;6.968;2023-03-01T01:44:12;102274.38;;;9.00;34.28
18784;BME280;9520;50.954;6.968;2023-03-01T01:44:34;102274.38;;;9.00;34.17
18784;BME280;9520;50.954;6.968;2023-03-01T01:45:31;102278.72;;;8.97;34.31
18784;BME280;9520;50.954;6.968;2023-03-01T01:45:55;102275.19;;;8.96;34.49
18784;BME280;9520;50.954;6.968;2023-03-01T01:46:25;102272.56;;;8.96;34.42
18784;BME280;9520;50.954;6.968;2023-03-01T01:46:54;102276.06;;;8.98;34.42
18784;BME280;9520;50.954;6.968;2023-03-01T01:47:20;102269.97;;;8.99;34.45
18784;BME280;9520;50.954;6.968;2023-03-01T01:47:43;102272.53;;;8.95;34.58
18784;BME280;9520;50.954;6.968;2023-03-01T01:48:12;102258.31;;;8.85;34.46
18784;BME280;9520;50.954;6.968;2023-03-01T01:48:39;102270.75;;;8.94;34.42
18784;BME280;9520;50.954;6.968;2023-03-01T01:49:05;102266.38;;;8.93;34.77
18784;BME280;9520;50.954;6.968;2023-03-01T01:49:33;102268.09;;;8.92;34.96
18784;BME280;9520;50.954;6.968;2023-03-01T01:49:57;102268.06;;;8.91;35.03
18784;BME280;9520;50.954;6.968;2023-03-01T01:50:19;102263.63;;;8.88;35.05
18784;BME280;9520;50.954;6.968;2023-03-01T01:50:41;102263.63;;;8.88;34.95
18784;BME280;9520;50.954;6.968;2023-03-01T01:51:03;102268.06;;;8.91;34.93
18784;BME280;9520;50.954;6.968;2023-03-01T01:51:28;102262.81;;;8.91;34.92
18784;BME280;9520;50.954;6.968;2023-03-01T01:52:04;102257.50;;;8.88;34.93
18784;BME280;9520;50.954;6.968;2023-03-01T01:52:29;102264.56;;;8.90;35.00
18784;BME280;9520;50.954;6.968;2023-03-01T01:52:54;102260.13;;;8.88;35.17
18784;BME280;9520;50.954;6.968;2023-03-01T01:53:18;102266.31;;;8.91;34.88
18784;BME280;9520;50.954;6.968;2023-03-01T01:53:42;102263.72;;;8.93;35.08
18784;BME280;9520;50.954;6.968;2023-03-01T01:54:08;102262.00;;;8.95;34.75
18784;BME280;9520;50.954;6.968;2023-03-01T01:54:38;102260.22;;;8.92;34.96
18784;BME280;9520;50.954;6.968;2023-03-01T01:55:05;102262.81;;;8.91;34.84
18784;BME280;9520;50.954;6.968;2023-03-01T01:55:28;102255.81;;;8.91;34.89
18784;BME280;9520;50.954;6.968;2023-03-01T01:55:54;102254.88;;;8.88;34.64
18784;BME280;9520;50.954;6.968;2023-03-01T01:56:20;102263.69;;;8.91;34.62
18784;BME280;9520;50.954;6.968;2023-03-01T01:56:47;102260.19;;;8.91;34.63
18784;BME280;9520;50.954;6.968;2023-03-01T01:57:14;102252.25;;;8.88;35.09
18784;BME280;9520;50.954;6.968;2023-03-01T01:57:39;102261.91;;;8.90;35.20
18784;BME280;9520;50.954;6.968;2023-03-01T01:58:04;102254.00;;;8.89;35.07
18784;BME280;9520;50.954;6.968;2023-03-01T01:58:29;102261.94;;;8.92;34.79
18784;BME280;9520;50.954;6.968;2023-03-01T01:58:54;102262.78;;;8.88;34.86
18784;BME280;9520;50.954;6.968;2023-03-01T01:59:16;102257.50;;;8.88;35.00
18784;BME280;9520;50.954;6.968;2023-03-01T01:59:38;102266.25;;;8.87;35.26
18784;BME280;9520;50.954;6.968;2023-03-01T02:00:04;102260.94;;;8.85;35.26
18784;BME280;9520;50.954;6.968;2023-03-01T02:00:33;102260.88;;;8.81;35.14
18784;BME280;9520;50.954;6.968;2023-03-01T02:00:56;102256.53;;;8.84;35.32
18784;BME280;9520;50.954;6.968;2023-03-01T02:01:18;102251.28;;;8.84;35.16
18784;BME280;9520;50.954;6.968;2023-03-01T02:01:41;102251.34;;;8.87;35.21
18784;BME280;9520;50.954;6.968;2023-03-01T02:02:04;102251.31;;;8.86;35.40
18784;BME280;9520;50.954;6.968;2023-03-01T02:02:26;102253.94;;;8.86;35.40
18784;BME280;9520;50.954;6.968;2023-03-01T02:02:51;102253.03;;;8.84;35.07
18784;BME280;9520;50.954;6.968;2023-03-01T02:03:19;102251.28;;;8.84;35.07
18784;BME280;9520;50.954;6.968;2023-03-01T02:03:44;102258.28;;;8.84;35.11
18784;BME280;9520;50.954;6.968;2023-03-01T02:04:07;102251.28;;;8.84;35.25
18784;BME280;9520;50.954;6.968;2023-03-01T02:04:31;102257.44;;;8.85;35.32
18784;BME280;9520;50.954;6.968;2023-03-01T02:05:00;102250.38;;;8.84;35.23
18784;BME280;9520;50.954;6.968;2023-03-01T02:05:29;102252.13;;;8.83;34.93